Time;durP1;ratioP1;P1;durP2;ratioP2;P2;SDS_P1;SDS_P2;PMS_P1;PMS_P2;Temp;Humidity;BMP_temperature;BMP_pressure;BME280_temperature;BME280_humidity;BME280_pressure;Samples;Min_cycle;Max_cycle;Signal;HPM_P1;HPM_P2
2023/03/14 00:02:16;;;;;;;0.30;0.30;;;;;;;18.32;47.24;98740.41;5116251;28;20051;-39
2023/03/14 00:04:42;;;;;;;0.20;0.20;;;;;;;18.30;47.42;98724.19;5097828;28;20051;-39
2023/03/14 00:07:10;;;;;;;0.30;0.30;;;;;;;18.32;47.21;98721.94;5116053;28;20066;-39
2023/03/14 00:09:36;;;;;;;0.20;0.20;;;;;;;18.32;47.43;98716.41;5116333;28;20047;-39
2023/03/14 00:12:03;;;;;;;0.30;0.30;;;;;;;18.32;47.17;98713.66;5115786;28;20104;-39
2023/03/14 00:14:29;;;;;;;0.25;0.25;;;;;;;18.32;47.34;98712.84;5097709;28;20133;-39
2023/03/14 00:16:55;;;;;;;0.30;0.30;;;;;;;18.32;47.25;98707.34;5116746;28;20395;-39
2023/03/14 00:19:20;;;;;;;0.30;0.30;;;;;;;18.32;47.36;98721.94;5124769;27;20413;-39
2023/03/14 00:21:46;;;;;;;0.30;0.30;;;;;;;18.33;47.21;98726.31;5136721;27;20075;-39
2023/03/14 00:24:12;;;;;;;0.30;0.30;;;;;;;18.33;47.40;98755.81;5136138;27;20201;-39
2023/03/14 00:26:38;;;;;;;0.30;0.30;;;;;;;18.32;47.29;98771.53;5131154;27;20411;-39
2023/03/14 00:29:03;;;;;;;0.30;0.30;;;;;;;18.33;47.14;98786.13;5116449;28;20197;-39
2023/03/14 00:31:29;;;;;;;0.30;0.30;;;;;;;18.31;47.62;98825.03;5112585;27;20304;-39
2023/03/14 00:33:56;;;;;;;0.30;0.30;;;;;;;18.32;47.26;98825.84;5115952;28;20043;-39
2023/03/14 00:36:22;;;;;;;0.30;0.30;;;;;;;18.31;47.21;98819.53;5114562;28;20071;-40
2023/03/14 00:38:50;;;;;;;0.30;0.30;;;;;;;18.32;47.61;98821.13;5115425;28;20054;-40
2023/03/14 00:41:18;;;;;;;0.20;0.20;;;;;;;18.32;47.37;98828.59;5077244;28;20885;-39
2023/03/14 00:43:44;;;;;;;0.30;0.30;;;;;;;18.33;47.49;98813.66;5094112;28;20071;-39
2023/03/14 00:46:10;;;;;;;0.30;0.30;;;;;;;18.32;47.24;98803.78;5096139;28;20619;-39
2023/03/14 00:48:36;;;;;;;0.30;0.30;;;;;;;18.32;47.15;98801.03;5097388;28;20447;-39
2023/03/14 00:51:03;;;;;;;0.30;0.30;;;;;;;18.33;47.27;98783.34;5115750;28;20096;-39
2023/03/14 00:53:29;;;;;;;0.40;0.40;;;;;;;18.32;47.25;98779.00;5114956;28;20399;-39
2023/03/14 00:55:54;;;;;;;0.30;0.30;;;;;;;18.32;47.16;98774.28;5115415;28;20050;-39
2023/03/14 00:58:20;;;;;;;0.30;0.30;;;;;;;18.31;47.11;98778.19;5115570;28;20200;-39
2023/03/14 01:00:46;;;;;;;0.30;0.30;;;;;;;18.32;47.29;98771.53;5115884;28;20039;-39
2023/03/14 01:03:13;;;;;;;0.30;0.30;;;;;;;18.32;47.32;98776.22;5115418;28;20510;-40
2023/03/14 01:05:39;;;;;;;0.20;0.20;;;;;;;18.31;47.45;98775.44;5096532;28;20043;-39
2023/03/14 01:08:06;;;;;;;0.30;0.30;;;;;;;18.32;47.20;98779.00;5096624;28;20804;-39
2023/03/14 01:10:32;;;;;;;0.30;0.30;;;;;;;18.32;47.23;98776.22;5097711;28;20050;-39
2023/03/14 01:12:58;;;;;;;0.30;0.30;;;;;;;18.30;47.29;98765.53;5115510;28;20047;-39
2023/03/14 01:15:23;;;;;;;0.30;0.30;;;;;;;18.31;47.45;98769.91;5114170;28;20254;-39
2023/03/14 01:17:49;;;;;;;0.30;0.30;;;;;;;18.33;47.28;98777.84;5090479;27;20103;-39
2023/03/14 01:20:16;;;;;;;0.30;0.30;;;;;;;18.32;47.19;98770.72;5132483;27;20406;-39
2023/03/14 01:22:43;;;;;;;0.30;0.30;;;;;;;18.30;47.21;98777.34;5117564;27;20123;-40
2023/03/14 01:25:12;;;;;;;0.20;0.20;;;;;;;18.31;47.33;98772.69;5135844;27;20051;-39
2023/03/14 01:27:38;;;;;;;0.30;0.30;;;;;;;18.30;47.35;98765.53;5122154;27;20054;-39
2023/03/14 01:30:04;;;;;;;0.30;0.30;;;;;;;18.30;47.10;98760.81;5114710;28;20051;-39
2023/03/14 01:32:30;;;;;;;0.20;0.20;;;;;;;18.30;47.13;98754.50;5115430;27;20298;-40
2023/03/14 01:34:55;;;;;;;0.30;0.30;;;;;;;18.31;47.09;98750.63;5114816;27;20051;-39
2023/03/14 01:37:21;;;;;;;0.30;0.30;;;;;;;18.31;47.11;98742.38;5096728;28;20614;-39
2023/03/14 01:39:47;;;;;;;0.30;0.30;;;;;;;18.30;47.21;98744.28;5096227;28;20125;-39
2023/03/14 01:42:13;;;;;;;0.30;0.30;;;;;;;18.30;47.35;98741.53;5112104;28;20039;-39
2023/03/14 01:45:00;;;;;;;0.28;0.28;;;;;;;18.30;47.13;98749.78;5115046;27;20182;-40
2023/03/14 01:47:25;;;;;;;0.30;0.30;;;;;;;18.31;47.28;98750.63;5107693;28;20104;-40
2023/03/14 01:50:10;;;;;;;0.30;0.30;;;;;;;18.31;47.20;98736.84;5114824;28;20067;-39
2023/03/14 01:52:41;;;;;;;0.30;0.30;;;;;;;18.30;47.18;98733.25;5096902;28;20051;-39
2023/03/14 01:55:14;;;;;;;0.20;0.20;;;;;;;18.31;47.18;98739.59;5113876;28;20055;-39
2023/03/14 01:57:44;;;;;;;0.30;0.30;;;;;;;18.30;47.27;98735.22;5096621;28;20043;-39
2023/03/14 02:00:14;;;;;;;0.30;0.30;;;;;;;18.30;47.24;98726.94;5114539;28;20074;-39
2023/03/14 02:02:50;;;;;;;0.30;0.30;;;;;;;18.30;47.41;98732.47;5096151;28;20049;-39
2023/03/14 02:05:19;;;;;;;0.30;0.30;;;;;;;18.30;47.12;98721.44;5096018;28;20050;-40
2023/03/14 02:07:50;;;;;;;0.30;0.30;;;;;;;18.29;47.11;98715.13;5095050;28;20460;-39
2023/03/14 02:10:18;;;;;;;0.30;0.30;;;;;;;18.28;47.12;98719.03;5096045;28;20062;-39
2023/03/14 02:12:44;;;;;;;;;;;;;;;18.30;47.17;98729.69;5115012;28;20480;-40
2023/03/14 02:15:10;;;;;;;0.30;0.30;;;;;;;18.28;47.36;98732.78;5114888;28;20363;-39
2023/03/14 02:17:36;;;;;;;0.30;0.30;;;;;;;18.30;47.16;98726.94;5101499;28;20057;-39
2023/03/14 02:22:38;;;;;;;0.20;0.20;;;;;;;18.34;47.24;98729.84;5173082;27;20364;-36
2023/03/14 02:25:09;;;;;;;0.30;0.30;;;;;;;18.34;47.06;98727.09;5134450;27;20494;-36
2023/03/14 02:27:34;;;;;;;0.30;0.30;;;;;;;18.33;46.93;98737.31;5133748;27;20050;-36
2023/03/14 02:30:04;;;;;;;0.30;0.30;;;;;;;18.30;47.04;98741.53;5152142;27;20051;-38
2023/03/14 02:32:31;;;;;;;0.20;0.20;;;;;;;18.30;47.16;98737.97;5118342;27;20366;-37
2023/03/14 02:34:59;;;;;;;0.20;0.20;;;;;;;18.29;47.21;98737.16;5131994;27;20289;-36
2023/03/14 02:37:34;;;;;;;0.28;0.28;;;;;;;18.31;47.23;98739.59;5111265;27;20483;-37
2023/03/14 02:39:59;;;;;;;0.30;0.30;;;;;;;18.29;47.04;98737.16;5111556;27;20070;-37
2023/03/14 02:42:25;;;;;;;0.30;0.30;;;;;;;18.30;47.10;98736.00;5119322;27;20511;-37
2023/03/14 02:44:55;;;;;;;0.30;0.30;;;;;;;18.28;47.32;98729.22;5111565;28;20046;-37
2023/03/14 02:47:27;;;;;;;0.40;0.40;;;;;;;18.28;47.19;98727.28;5087227;27;20438;-37
2023/03/14 02:49:57;;;;;;;0.30;0.30;;;;;;;18.29;47.33;98720.63;5132009;27;20050;-37
2023/03/14 02:52:23;;;;;;;0.30;0.30;;;;;;;18.29;47.10;98719.81;5131462;27;20055;-37
2023/03/14 02:54:49;;;;;;;0.30;0.30;;;;;;;18.29;47.07;98708.81;5131760;27;20099;-37
2023/03/14 02:57:14;;;;;;;0.30;0.30;;;;;;;18.29;47.28;98720.63;5132257;27;20039;-37
2023/03/14 02:59:40;;;;;;;0.30;0.30;;;;;;;18.28;47.06;98709.94;5131655;27;20115;-36
2023/03/14 03:02:06;;;;;;;0.30;0.30;;;;;;;18.29;47.03;98712.38;5131766;27;20057;-37
2023/03/14 03:04:31;;;;;;;0.30;0.30;;;;;;;18.29;47.33;98704.09;5131428;27;20510;-36
2023/03/14 03:06:57;;;;;;;0.30;0.30;;;;;;;18.29;47.13;98701.34;5112600;27;20043;-37
2023/03/14 03:09:23;;;;;;;0.30;0.30;;;;;;;18.29;47.07;98698.59;5131584;27;20051;-37
2023/03/14 03:11:48;;;;;;;0.30;0.30;;;;;;;18.29;47.24;98698.59;5131870;27;20414;-37
2023/03/14 03:14:14;;;;;;;0.30;0.30;;;;;;;18.29;47.07;98700.53;5132022;27;20057;-37
2023/03/14 03:16:39;;;;;;;0.30;0.30;;;;;;;18.28;47.02;98696.97;5131828;27;20051;-36
2023/03/14 03:19:05;;;;;;;0.30;0.30;;;;;;;18.28;47.14;98702.47;5130267;27;20047;-37
2023/03/14 03:21:31;;;;;;;0.40;0.40;;;;;;;18.29;47.13;98703.28;5131791;27;20458;-37
2023/03/14 03:23:56;;;;;;;0.35;0.35;;;;;;;18.29;47.28;98703.28;5130567;27;20073;-36
2023/03/14 03:26:22;;;;;;;0.30;0.30;;;;;;;18.29;47.13;98700.53;5129097;27;20047;-36
2023/03/14 03:28:50;;;;;;;0.30;0.30;;;;;;;18.28;47.23;98696.97;5110711;27;20100;-37
2023/03/14 03:31:16;;;;;;;0.30;0.30;;;;;;;18.28;47.13;98701.69;5109965;28;20071;-37
2023/03/14 03:33:42;;;;;;;0.30;0.30;;;;;;;18.28;47.26;98710.75;5099073;28;20043;-36
2023/03/14 03:36:08;;;;;;;0.30;0.30;;;;;;;18.28;47.35;98705.25;5110474;28;20388;-37
2023/03/14 03:38:34;;;;;;;0.30;0.30;;;;;;;18.29;47.15;98706.84;5097280;28;20624;-36
2023/03/14 03:41:03;;;;;;;0.30;0.30;;;;;;;18.28;47.25;98696.97;5096693;28;20270;-37
2023/03/14 03:43:29;;;;;;;0.30;0.30;;;;;;;18.27;47.32;98700.88;5098699;28;20462;-37
2023/03/14 03:45:54;;;;;;;0.30;0.30;;;;;;;18.28;47.15;98701.69;5117122;28;20039;-36
2023/03/14 03:48:20;;;;;;;0.30;0.30;;;;;;;18.27;47.25;98706.38;5117282;28;20050;-36
2023/03/14 03:50:46;;;;;;;0.30;0.30;;;;;;;18.28;47.25;98690.66;5117267;28;20051;-37
2023/03/14 03:53:12;;;;;;;0.30;0.30;;;;;;;18.29;47.07;98693.06;5117165;28;20055;-37
2023/03/14 03:55:42;;;;;;;0.30;0.30;;;;;;;18.29;47.13;98678.50;5116124;28;20467;-37
2023/03/14 03:58:08;;;;;;;0.30;0.30;;;;;;;18.29;47.07;98671.03;5117314;28;20047;-37
2023/03/14 04:00:33;;;;;;;0.30;0.30;;;;;;;18.28;47.23;98669.41;5117006;28;20329;-37
2023/03/14 04:03:00;;;;;;;0.20;0.20;;;;;;;18.28;47.08;98666.66;5116971;28;20054;-37
2023/03/14 04:05:26;;;;;;;0.30;0.30;;;;;;;18.28;47.21;98669.41;5116668;28;20481;-37
2023/03/14 04:07:51;;;;;;;0.30;0.30;;;;;;;18.28;47.08;98661.16;5116541;28;20247;-37
2023/03/14 04:10:17;;;;;;;0.30;0.30;;;;;;;18.29;47.14;98664.72;5116961;28;20083;-37
2023/03/14 04:12:43;;;;;;;0.30;0.30;;;;;;;18.29;47.29;98675.75;5117218;28;20047;-36
2023/03/14 04:15:09;;;;;;;0.30;0.30;;;;;;;18.29;47.26;98689.50;5117202;28;20391;-37
2023/03/14 04:17:34;;;;;;;0.30;0.30;;;;;;;18.28;47.25;98676.88;5097976;28;20071;-37
2023/03/14 04:20:00;;;;;;;0.20;0.20;;;;;;;18.28;46.93;98679.63;5116998;28;20047;-37
2023/03/14 04:22:26;;;;;;;0.30;0.30;;;;;;;18.26;47.36;98652.44;5116509;28;20050;-37
2023/03/14 04:24:51;;;;;;;0.30;0.30;;;;;;;18.29;47.00;98660.00;5116521;27;20047;-37
2023/03/14 04:27:17;;;;;;;0.30;0.30;;;;;;;18.28;47.08;98674.94;5105557;28;20043;-37
2023/03/14 04:29:43;;;;;;;0.30;0.30;;;;;;;18.28;47.09;98677.69;5095882;28;20051;-37
2023/03/14 04:32:08;;;;;;;0.20;0.20;;;;;;;18.27;47.27;98681.59;5095929;28;20052;-37
2023/03/14 04:34:34;;;;;;;0.20;0.20;;;;;;;18.28;47.03;98674.94;5096177;28;20046;-37
2023/03/14 04:37:00;;;;;;;0.30;0.30;;;;;;;18.28;47.21;98655.66;5102389;28;20585;-37
2023/03/14 04:39:26;;;;;;;0.30;0.30;;;;;;;18.28;47.17;98661.16;5117003;28;20091;-37
2023/03/14 04:41:52;;;;;;;0.30;0.30;;;;;;;18.28;47.10;98652.09;5116160;28;20693;-37
2023/03/14 04:44:17;;;;;;;0.30;0.30;;;;;;;18.27;47.15;98634.75;5097036;28;20418;-37
2023/03/14 04:46:43;;;;;;;0.30;0.30;;;;;;;18.27;47.19;98637.50;5110285;28;20047;-37
2023/03/14 04:49:09;;;;;;;0.30;0.30;;;;;;;18.27;47.29;98632.00;5095767;28;20403;-37
2023/03/14 04:51:34;;;;;;;0.30;0.30;;;;;;;18.27;47.33;98629.25;5095924;28;20136;-37
2023/03/14 04:54:00;;;;;;;0.30;0.30;;;;;;;18.28;47.04;98621.78;5094979;28;20475;-37
2023/03/14 04:56:27;;;;;;;0.30;0.30;;;;;;;18.28;47.18;98617.06;5095706;28;20050;-37
2023/03/14 04:58:53;;;;;;;0.30;0.30;;;;;;;18.27;47.25;98612.72;5076865;28;20446;-37
2023/03/14 05:01:18;;;;;;;0.30;0.30;;;;;;;18.27;47.05;98606.41;5095978;28;20390;-37
2023/03/14 05:03:44;;;;;;;0.30;0.30;;;;;;;18.27;47.12;98598.13;5095363;28;20043;-37
2023/03/14 05:06:10;;;;;;;0.30;0.30;;;;;;;18.28;47.18;98595.03;5094265;28;20422;-37
2023/03/14 05:08:35;;;;;;;0.30;0.30;;;;;;;18.27;47.08;98604.44;5076804;28;20050;-37
2023/03/14 05:11:02;;;;;;;0.30;0.30;;;;;;;18.27;47.00;98601.69;5095695;28;20063;-37
2023/03/14 05:13:28;;;;;;;0.30;0.30;;;;;;;18.27;47.03;98598.13;5095376;28;20043;-37
2023/03/14 05:15:55;;;;;;;0.30;0.30;;;;;;;18.28;47.21;98605.25;5086132;28;20388;-37
2023/03/14 05:18:20;;;;;;;0.30;0.30;;;;;;;18.26;46.95;98588.22;5095877;27;20044;-37
2023/03/14 05:20:46;;;;;;;0.32;0.32;;;;;;;18.27;47.27;98598.13;5095365;28;20402;-37
2023/03/14 05:23:12;;;;;;;0.30;0.30;;;;;;;18.27;47.10;98582.41;5108348;28;20079;-37
2023/03/14 05:25:37;;;;;;;0.30;0.30;;;;;;;18.29;47.05;98579.31;5115085;28;20051;-37
2023/03/14 05:28:03;;;;;;;0.30;0.30;;;;;;;18.28;47.02;98585.97;5114883;28;20047;-36
2023/03/14 05:30:30;;;;;;;0.30;0.30;;;;;;;18.27;47.12;98587.09;5115060;28;20039;-37
2023/03/14 05:32:56;;;;;;;0.30;0.30;;;;;;;18.25;47.03;98584.66;5114495;27;20070;-37
2023/03/14 05:35:21;;;;;;;0.30;0.30;;;;;;;18.25;47.06;98581.91;5115403;28;20418;-36
2023/03/14 05:37:48;;;;;;;0.30;0.30;;;;;;;18.27;47.02;98589.88;5115001;28;20047;-37
2023/03/14 05:40:13;;;;;;;0.30;0.30;;;;;;;18.26;47.19;98577.19;5114633;28;20053;-37
2023/03/14 05:42:39;;;;;;;0.30;0.30;;;;;;;18.26;47.08;98585.47;5115532;28;20353;-37
2023/03/14 05:45:05;;;;;;;0.30;0.30;;;;;;;18.27;47.05;98581.59;5115447;28;20045;-37
2023/03/14 05:47:31;;;;;;;0.30;0.30;;;;;;;18.26;47.16;98577.19;5109261;28;20509;-37
2023/03/14 05:49:56;;;;;;;0.30;0.30;;;;;;;18.28;47.01;98569.44;5095942;28;20508;-37
2023/03/14 05:52:22;;;;;;;0.30;0.30;;;;;;;18.26;47.05;98571.69;5098241;28;20047;-37
2023/03/14 05:54:48;;;;;;;0.30;0.30;;;;;;;18.25;47.15;98579.16;5114659;28;20512;-37
2023/03/14 05:57:13;;;;;;;0.30;0.30;;;;;;;18.25;47.13;98575.59;5106043;27;20383;-37
2023/03/14 05:59:39;;;;;;;0.30;0.30;;;;;;;18.25;47.04;98581.91;5107519;27;20501;-37
2023/03/14 06:02:05;;;;;;;0.30;0.30;;;;;;;18.25;47.17;98575.59;5106440;27;20089;-37
2023/03/14 06:04:30;;;;;;;0.30;0.30;;;;;;;18.25;47.11;98575.59;5093071;28;20074;-37
2023/03/14 06:06:56;;;;;;;0.30;0.30;;;;;;;18.25;46.89;98575.59;5104331;28;20044;-37
2023/03/14 06:09:23;;;;;;;0.30;0.30;;;;;;;18.26;46.79;98568.94;5113408;28;20063;-37
2023/03/14 06:11:49;;;;;;;0.30;0.30;;;;;;;18.27;47.11;98576.91;5102126;28;20070;-37
2023/03/14 06:14:14;;;;;;;0.30;0.30;;;;;;;18.27;47.13;98576.09;5098704;28;20410;-36
2023/03/14 06:16:40;;;;;;;0.30;0.30;;;;;;;18.25;47.08;98573.66;5098188;27;20490;-37
2023/03/14 06:19:06;;;;;;;0.30;0.30;;;;;;;18.25;46.86;98567.34;5100525;28;20404;-37
2023/03/14 06:21:32;;;;;;;0.30;0.30;;;;;;;18.23;47.16;98569.63;5092129;28;20057;-37
2023/03/14 06:23:57;;;;;;;0.30;0.30;;;;;;;18.26;47.86;98571.69;5099129;28;20137;-37
2023/03/14 06:26:23;;;;;;;0.30;0.30;;;;;;;18.36;48.14;98570.53;5103788;28;20058;-37
2023/03/14 06:28:49;;;;;;;0.30;0.30;;;;;;;18.33;47.84;98574.75;5109141;27;20468;-36
2023/03/14 06:31:15;;;;;;;0.40;0.40;;;;;;;18.32;47.81;98570.38;5112176;28;20054;-37
2023/03/14 06:33:40;;;;;;;0.30;0.30;;;;;;;18.30;47.80;98573.44;5103358;27;20050;-37
2023/03/14 06:36:06;;;;;;;0.30;0.30;;;;;;;18.31;47.64;98582.56;5106061;27;20144;-37
2023/03/14 06:38:32;;;;;;;0.28;0.28;;;;;;;18.30;47.45;98576.22;5104070;28;20382;-43
2023/03/14 06:41:04;;;;;;;0.30;0.30;;;;;;;18.29;47.55;98574.59;5109347;28;20417;-37
2023/03/14 06:43:30;;;;;;;0.30;0.30;;;;;;;18.28;47.75;98575.75;5069746;28;20403;-36
2023/03/14 06:45:56;;;;;;;0.30;0.30;;;;;;;18.29;47.62;98582.06;5111600;28;20532;-37
2023/03/14 06:48:22;;;;;;;0.30;0.30;;;;;;;18.28;47.49;98574.94;5111613;28;20046;-37
2023/03/14 06:50:48;;;;;;;0.30;0.30;;;;;;;18.29;47.62;98584.81;5108018;28;20043;-37
2023/03/14 06:53:14;;;;;;;0.30;0.30;;;;;;;18.29;47.60;98582.06;5107770;28;20140;-37
2023/03/14 06:55:39;;;;;;;0.30;0.30;;;;;;;18.28;47.59;98586.75;5103328;28;20273;-37
2023/03/14 06:58:07;;;;;;;0.30;0.30;;;;;;;18.29;47.60;98591.13;5078982;28;20047;-36
2023/03/14 07:00:34;;;;;;;0.30;0.30;;;;;;;18.29;47.67;98584.81;5095043;27;20031;-37
2023/03/14 07:02:59;;;;;;;0.30;0.30;;;;;;;18.29;47.55;98593.88;5079949;28;20058;-37
2023/03/14 07:05:25;;;;;;;0.35;0.35;;;;;;;18.31;47.63;98593.56;5089048;28;20055;-37
2023/03/14 07:07:51;;;;;;;0.30;0.30;;;;;;;18.28;47.50;98600.53;5072719;28;20039;-38
2023/03/14 07:10:16;;;;;;;0.30;0.30;;;;;;;18.29;47.54;98588.38;5093812;28;20292;-37
2023/03/14 07:12:42;;;;;;;0.30;0.30;;;;;;;18.29;47.45;98593.88;5107936;28;20485;-36
2023/03/14 07:15:08;;;;;;;0.30;0.30;;;;;;;18.28;47.52;98594.22;5115445;27;20483;-37
2023/03/14 07:17:44;;;;;;;0.30;0.30;;;;;;;18.29;47.41;98596.63;5096317;28;20417;-37
2023/03/14 07:20:10;;;;;;;0.30;0.30;;;;;;;18.29;47.75;98598.59;5087906;28;20506;-37
2023/03/14 07:22:35;;;;;;;0.30;0.30;;;;;;;18.29;47.36;98601.34;5106830;28;20050;-37
2023/03/14 07:25:01;;;;;;;0.30;0.30;;;;;;;18.29;47.64;98598.59;5109802;28;20044;-37
2023/03/14 07:27:27;;;;;;;0.30;0.30;;;;;;;18.29;47.41;98602.16;5107072;28;20035;-37
2023/03/14 07:29:52;;;;;;;0.30;0.30;;;;;;;18.29;47.57;98601.34;5101386;28;20054;-37
2023/03/14 07:32:18;;;;;;;0.30;0.30;;;;;;;18.31;47.53;98601.84;5099863;28;20051;-37
2023/03/14 07:34:44;;;;;;;0.30;0.30;;;;;;;18.30;47.66;98608.47;5105925;28;20036;-37
2023/03/14 07:37:10;;;;;;;0.30;0.30;;;;;;;18.29;47.55;98613.19;5105040;28;20054;-38
2023/03/14 07:39:35;;;;;;;0.30;0.30;;;;;;;18.29;47.48;98613.19;5106665;28;20043;-37
2023/03/14 07:42:01;;;;;;;0.30;0.30;;;;;;;18.29;47.29;98617.88;5100700;28;20035;-37
2023/03/14 07:44:27;;;;;;;0.30;0.30;;;;;;;18.29;47.52;98617.88;5099818;27;20195;-37
2023/03/14 07:46:53;;;;;;;0.28;0.28;;;;;;;18.29;47.43;98618.69;5098520;28;20040;-37
2023/03/14 07:49:18;;;;;;;0.30;0.30;;;;;;;18.29;47.61;98618.69;5098540;28;20039;-37
2023/03/14 07:51:47;;;;;;;0.25;0.25;;;;;;;18.29;47.56;98623.38;5105714;28;20301;-37
2023/03/14 07:54:13;;;;;;;0.30;0.30;;;;;;;18.29;47.56;98620.63;5082497;28;20288;-37
2023/03/14 07:56:39;;;;;;;0.30;0.30;;;;;;;18.28;47.63;98619.81;5098247;28;20039;-37
2023/03/14 07:59:04;;;;;;;0.25;0.25;;;;;;;18.29;47.54;98626.16;5093812;28;20043;-37
2023/03/14 08:01:30;;;;;;;0.30;0.30;;;;;;;18.28;47.44;98630.03;5068540;27;20055;-40
2023/03/14 08:03:56;;;;;;;0.30;0.30;;;;;;;18.29;47.49;98628.91;5070115;28;20107;-37
2023/03/14 08:06:22;;;;;;;0.20;0.20;;;;;;;18.29;47.46;98628.91;5070071;27;20624;-36
2023/03/14 08:08:47;;;;;;;0.30;0.30;;;;;;;18.28;47.43;98633.59;5083390;27;20283;-37
2023/03/14 08:11:13;;;;;;;0.30;0.30;;;;;;;18.29;47.43;98637.97;5085986;28;20824;-37
2023/03/14 08:13:39;;;;;;;0.30;0.30;;;;;;;18.34;48.25;98630.66;5089961;27;20192;-41
2023/03/14 08:16:05;;;;;;;0.30;0.30;;;;;;;18.49;49.47;98649.41;5090427;27;20576;-36
2023/03/14 08:18:32;;;;;;;0.30;0.30;;;;;;;18.44;48.15;98635.81;5090926;27;20081;-37
2023/03/14 08:20:57;;;;;;;0.25;0.25;;;;;;;18.40;48.19;98648.66;5077659;28;20503;-37
2023/03/14 08:23:23;;;;;;;0.30;0.30;;;;;;;18.35;48.33;98638.63;5096705;27;20138;-37
2023/03/14 08:25:50;;;;;;;0.30;0.30;;;;;;;18.35;48.18;98638.63;5098669;27;20634;-37
2023/03/14 08:28:16;;;;;;;0.30;0.30;;;;;;;18.35;48.26;98643.28;5091863;28;20058;-37
2023/03/14 08:30:42;;;;;;;0.30;0.30;;;;;;;18.35;48.26;98643.28;5105488;28;20744;-36
2023/03/14 08:33:12;;;;;;;0.30;0.30;;;;;;;18.35;48.11;98635.03;5086004;28;20048;-37
2023/03/14 08:35:38;;;;;;;0.30;0.30;;;;;;;18.35;47.96;98646.03;5104507;28;20513;-40
2023/03/14 08:38:04;;;;;;;0.30;0.30;;;;;;;18.35;47.92;98644.13;5083672;28;20172;-37
2023/03/14 08:40:29;;;;;;;0.30;0.30;;;;;;;18.35;48.19;98655.16;5099319;28;20522;-37
2023/03/14 08:42:55;;;;;;;0.30;0.30;;;;;;;18.37;48.15;98654.81;5079924;28;20507;-36
2023/03/14 08:45:21;;;;;;;0.30;0.30;;;;;;;18.37;47.94;98658.38;5088403;27;20237;-37
2023/03/14 08:47:47;;;;;;;0.30;0.30;;;;;;;18.45;48.57;98654.78;5113871;27;20459;-36
2023/03/14 08:50:13;;;;;;;0.30;0.30;;;;;;;18.44;48.39;98674.41;5105915;28;20503;-37
2023/03/14 08:52:42;;;;;;;0.30;0.30;;;;;;;18.41;48.29;98680.56;5105703;27;20086;-37
2023/03/14 08:55:08;;;;;;;0.30;0.30;;;;;;;18.40;48.43;98679.75;5087699;28;20039;-37
2023/03/14 08:57:34;;;;;;;0.30;0.30;;;;;;;18.40;48.28;98695.50;5086828;28;20051;-37
2023/03/14 09:00:00;;;;;;;0.30;0.30;;;;;;;18.41;48.43;98684.13;5078403;28;20074;-37
2023/03/14 09:02:26;;;;;;;0.30;0.30;;;;;;;18.40;48.39;98690.78;5095752;27;20469;-37
2023/03/14 09:04:52;;;;;;;0.30;0.30;;;;;;;18.41;48.33;98697.09;5072523;28;20051;-37
2023/03/14 09:07:18;;;;;;;0.30;0.30;;;;;;;18.41;48.23;98695.16;5101874;27;20064;-37
2023/03/14 09:09:44;;;;;;;0.30;0.30;;;;;;;18.42;48.21;98709.75;5093218;27;20459;-37
2023/03/14 09:12:10;;;;;;;0.30;0.30;;;;;;;18.42;48.41;98715.25;5098030;27;20051;-37
2023/03/14 09:14:35;;;;;;;0.25;0.25;;;;;;;18.43;48.14;98758.19;5084327;28;20039;-41
2023/03/14 09:17:02;;;;;;;0.30;0.30;;;;;;;18.43;48.51;98761.75;5092924;27;20134;-41
2023/03/14 09:19:28;;;;;;;0.30;0.30;;;;;;;18.44;48.99;98782.69;5103683;27;20168;-38
2023/03/14 09:21:54;;;;;;;0.30;0.30;;;;;;;18.45;48.26;98803.59;5088424;27;20067;-40
2023/03/14 09:24:20;;;;;;;0.30;0.30;;;;;;;18.44;48.15;98824.03;5082822;28;20043;-37
2023/03/14 09:26:46;;;;;;;0.30;0.30;;;;;;;18.44;48.38;98826.78;5100001;27;21136;-39
2023/03/14 09:29:11;;;;;;;0.30;0.30;;;;;;;18.45;48.29;98841.38;5102391;28;20472;-40
2023/03/14 09:31:37;;;;;;;0.30;0.30;;;;;;;18.44;48.19;98862.63;5078168;28;20047;-43
2023/03/14 09:34:03;;;;;;;0.30;0.30;;;;;;;18.45;48.54;98861.47;5087193;27;20789;-41
2023/03/14 09:36:29;;;;;;;0.30;0.30;;;;;;;18.45;48.29;98866.19;5085835;27;20499;-40
2023/03/14 09:38:55;;;;;;;0.30;0.30;;;;;;;18.44;48.22;98878.34;5092808;27;20448;-41
2023/03/14 09:41:25;;;;;;;0.30;0.30;;;;;;;18.46;48.22;98903.63;5092572;27;20309;-42
2023/03/14 09:44:00;;;;;;;0.30;0.30;;;;;;;18.45;48.17;98908.34;5102084;28;20133;-41
2023/03/14 09:46:27;;;;;;;0.30;0.30;;;;;;;18.45;48.17;98908.34;5104081;27;20326;-42
2023/03/14 09:48:52;;;;;;;0.30;0.30;;;;;;;18.47;48.12;98914.31;5100018;27;20577;-39
2023/03/14 09:51:21;;;;;;;0.40;0.40;;;;;;;18.46;48.22;98920.97;5083793;27;20039;-40
2023/03/14 09:53:48;;;;;;;0.30;0.30;;;;;;;18.46;48.04;98937.50;5097062;27;20142;-39
2023/03/14 09:56:20;;;;;;;0.20;0.20;;;;;;;18.46;48.04;98945.78;5068041;27;20108;-40
2023/03/14 09:58:50;;;;;;;0.30;0.30;;;;;;;18.47;48.08;98960.38;5078606;27;20697;-39
2023/03/14 10:01:20;;;;;;;0.30;0.30;;;;;;;18.47;47.98;98963.94;5086547;28;20051;-39
2023/03/14 10:03:47;;;;;;;0.30;0.30;;;;;;;18.46;48.11;98989.06;5101748;27;20096;-39
2023/03/14 10:06:13;;;;;;;0.20;0.20;;;;;;;18.47;48.08;98990.69;5100421;28;20478;-40
2023/03/14 10:08:41;;;;;;;0.30;0.30;;;;;;;18.46;48.07;98995.41;5103586;27;20714;-40
2023/03/14 10:11:13;;;;;;;0.20;0.20;;;;;;;18.46;47.93;99014.69;5087225;28;20123;-39
2023/03/14 10:14:03;;;;;;;0.30;0.30;;;;;;;18.47;47.96;99015.50;5095150;28;20523;-40
2023/03/14 10:16:33;;;;;;;0.30;0.30;;;;;;;18.47;47.93;99026.53;5107497;28;20047;-40
2023/03/14 10:19:04;;;;;;;0.30;0.30;;;;;;;18.46;47.89;99039.50;5106722;28;20054;-39
2023/03/14 10:21:33;;;;;;;0.30;0.30;;;;;;;18.47;47.79;99048.56;5083308;28;20426;-39
2023/03/14 10:24:20;;;;;;;0.40;0.40;;;;;;;18.46;47.85;99056.03;5101484;27;20069;-39
2023/03/14 10:26:49;;;;;;;0.20;0.20;;;;;;;18.45;47.85;99059.94;5083696;28;20043;-39
2023/03/14 10:29:16;;;;;;;0.30;0.30;;;;;;;18.45;47.90;99076.47;5089198;28;20181;-40
2023/03/14 10:32:03;;;;;;;0.50;0.50;;;;;;;18.45;47.91;99094.94;5087584;27;20906;-39
2023/03/14 10:34:31;;;;;;;0.30;0.30;;;;;;;18.46;47.96;99096.56;5084126;27;20519;-40
2023/03/14 10:37:04;;;;;;;0.30;0.30;;;;;;;18.45;48.01;99112.28;5078253;28;20044;-40
2023/03/14 10:39:45;;;;;;;0.30;0.30;;;;;;;18.46;47.87;99121.38;5090369;27;20087;-40
2023/03/14 10:42:29;;;;;;;0.30;0.30;;;;;;;18.44;47.89;99118.13;5083591;27;20589;-39
2023/03/14 10:44:57;;;;;;;0.30;0.30;;;;;;;18.45;48.02;99128.84;5057506;28;20082;-39
2023/03/14 10:47:25;;;;;;;0.20;0.20;;;;;;;18.51;47.87;99141.31;5107281;27;20043;-39
2023/03/14 10:49:50;;;;;;;0.20;0.20;;;;;;;18.58;49.49;99148.34;5103582;27;20074;-39
2023/03/14 10:52:23;;;;;;;0.30;0.30;;;;;;;18.56;50.06;99165.19;5107972;28;20350;-39
2023/03/14 10:54:58;;;;;;;0.30;0.30;;;;;;;18.53;49.20;99172.16;5086792;28;20196;-41
2023/03/14 10:57:25;;;;;;;0.30;0.30;;;;;;;18.51;49.21;99179.91;5081249;27;20090;-39
2023/03/14 10:59:52;;;;;;;0.30;0.30;;;;;;;18.50;49.21;99211.38;5109300;28;20088;-39
2023/03/14 11:02:40;;;;;;;0.30;0.30;;;;;;;18.50;49.20;99219.66;5103495;27;20751;-40
2023/03/14 11:05:19;;;;;;;0.30;0.30;;;;;;;18.51;49.81;99237.81;5087377;27;20046;-39
2023/03/14 11:07:45;;;;;;;0.30;0.30;;;;;;;18.52;49.18;99250.50;5111908;28;20521;-39
2023/03/14 11:13:28;;;;;;;0.30;0.30;;;;;;;18.53;49.05;99265.06;5158904;27;20128;-37
2023/03/14 11:16:02;;;;;;;0.30;0.30;;;;;;;18.53;49.13;99276.09;5120458;27;20047;-37
2023/03/14 11:18:56;;;;;;;0.30;0.30;;;;;;;18.52;49.06;99268.94;5118298;27;20133;-37
2023/03/14 11:21:47;;;;;;;0.30;0.30;;;;;;;18.52;49.16;99279.97;5124235;27;20804;-37
2023/03/14 11:24:25;;;;;;;0.30;0.30;;;;;;;18.58;49.50;99289.75;5119450;27;20609;-37
2023/03/14 11:27:16;;;;;;;0.28;0.28;;;;;;;18.56;49.31;99298.31;5137475;27;20058;-37
2023/03/14 11:29:54;;;;;;;0.35;0.35;;;;;;;18.56;49.09;99305.78;5124989;27;21921;-37
2023/03/14 11:33:00;;;;;;;0.30;0.30;;;;;;;18.55;49.05;99317.94;5096388;27;20507;-37
2023/03/14 11:35:50;;;;;;;0.30;0.30;;;;;;;18.55;49.14;99329.78;5088931;27;20043;-37
2023/03/14 11:38:29;;;;;;;0.30;0.30;;;;;;;18.55;49.04;99345.50;5094637;27;20054;-38
2023/03/14 11:40:57;;;;;;;0.40;0.40;;;;;;;18.55;48.75;99342.75;5117974;27;20084;-37
2023/03/14 11:43:39;;;;;;;0.30;0.30;;;;;;;18.54;49.08;99341.94;5116437;27;20050;-37